Accueil
METAR-TAF:

METAR-TAF

Aéroports :

Aérodrome de Londres Biggin Hill

Londres Biggin Hill, Angleterre

latitude: 51-19N, longitude: 000-02E, altitude: 183 m

Observation

Le bulletin a été fait il y a 19 minutes, à 10:50 UTC
Vent 14 kt de nord-ouest
Température 10°C
Humidité 62%
Pression 1013 hPa
Visibilité 10 km ou plus
Nuages épars à une hauteur de 4000 ft

METAR: EGKB 161050Z 32014KT 9999 SCT040 10/03 Q1013

Heure: 12:09 (11:09 UTC)

Prévision

Le bulletin a été fait il y a 3 heures et 16 minutes, à 07:53 UTC
Prévision valable du 16 à 09 UTC au 16 à 18 UTC
Vent 12 kt de nord-ouest
Visibilité 10 km ou plus
Nuages épars à une hauteur de 3000 ft
Probabilité 30% :
Temporairement
du 16 à 09 UTC au 16 à 18 UTC
Vent 15 kt de nord-ouest avec des rafales jusqu'à 25 kt
Visibilité: 7000 m
averses de pluie,

TAF: EGKB 160753Z 1609/1618 31012KT 9999 SCT030 PROB30 TEMPO 1609/1618 32015G25KT 7000 SHRA

Observations et prévisions météorologiques de plus de 4000 aéroports (messages METAR et TAF).

Les stations disponibles sont représentées par des disques jaunes et rouges sur la carte.

Passer la souris dessus pour voir le nom de la station.

Cliquer dessus pour voir les observations et prévisions météorologiques.

Pour changer de carte: cliquez sur les boutons verts avec une croix noire pour zoomer, sur le bouton vert avec un tiret pour effectuer un zoom arrière, ou sur les flèches vertes pour les cartes adjacentes.


METAR-TAF: